Time;durP1;ratioP1;P1;durP2;ratioP2;P2;SDS_P1;SDS_P2;PMS_P1;PMS_P2;Temp;Humidity;BMP_temperature;BMP_pressure;BME280_temperature;BME280_humidity;BME280_pressure;Samples;Min_cycle;Max_cycle;Signal;HPM_P1;HPM_P2
2022/06/14 00:01:02;;;;;;;9.52;2.20;;;;;;;;;;5065833;28;20040;-58
2022/06/14 00:03:33;;;;;;;5.82;1.80;;;;;;;;;;5064141;28;20076;-58
2022/06/14 00:06:01;;;;;;;6.32;1.48;;;;;;;;;;5066205;28;20041;-58
2022/06/14 00:08:28;;;;;;;6.40;1.88;;;;;;;;;;5065237;28;20094;-58
2022/06/14 00:10:55;;;;;;;9.88;2.10;;;;;;;;;;5064934;28;20079;-58
2022/06/14 00:13:22;;;;;;;9.38;2.40;;;;;;;;;;5064377;28;20130;-58
2022/06/14 00:15:48;;;;;;;6.25;1.42;;;;;;;;;;5065764;28;20039;-58
2022/06/14 00:18:15;;;;;;;4.05;1.40;;;;;;;;;;5065952;28;20045;-58
2022/06/14 00:20:42;;;;;;;5.20;1.40;;;;;;;;;;5057971;28;20045;-58
2022/06/14 00:23:08;;;;;;;8.68;2.22;;;;;;;;;;5065771;28;20072;-58
2022/06/14 00:25:37;;;;;;;6.30;1.85;;;;;;;;;;5064255;28;20043;-58
2022/06/14 00:28:04;;;;;;;10.32;2.30;;;;;;;;;;5065545;28;20049;-58
2022/06/14 00:30:30;;;;;;;13.02;2.88;;;;;;;;;;5065609;28;20052;-58
2022/06/14 00:32:57;;;;;;;7.25;2.33;;;;;;;;;;5065075;28;20379;-58
2022/06/14 00:35:23;;;;;;;10.60;2.33;;;;;;;;;;5064851;28;20156;-58
2022/06/14 00:37:49;;;;;;;9.35;2.15;;;;;;;;;;5065108;28;20529;-59
2022/06/14 00:40:16;;;;;;;5.93;2.65;;;;;;;;;;5064575;28;20383;-58
2022/06/14 00:42:43;;;;;;;2.40;1.10;;;;;;;;;;5065292;28;20486;-58
2022/06/14 00:45:18;;;;;;;3.35;1.27;;;;;;;;;;5065224;28;20072;-58
2022/06/14 00:47:48;;;;;;;5.65;1.98;;;;;;;;;;5065421;28;20076;-58
2022/06/14 00:50:16;;;;;;;8.57;2.65;;;;;;;;;;5065456;28;20033;-58
2022/06/14 00:52:44;;;;;;;9.77;2.20;;;;;;;;;;5064785;28;20048;-58
2022/06/14 00:55:23;;;;;;;9.52;2.83;;;;;;;;;;5050565;28;20499;-58
2022/06/14 00:57:50;;;;;;;12.65;3.30;;;;;;;;;;5065039;28;20040;-58
2022/06/14 01:00:18;;;;;;;8.65;2.42;;;;;;;;;;5065115;28;20043;-59
2022/06/14 01:02:47;;;;;;;12.00;3.17;;;;;;;;;;5063816;28;20498;-58
2022/06/14 01:05:15;;;;;;;10.05;2.85;;;;;;;;;;5064835;28;20768;-58
2022/06/14 01:07:44;;;;;;;11.43;3.05;;;;;;;;;;5064305;28;20048;-58
2022/06/14 01:10:13;;;;;;;10.45;2.60;;;;;;;;;;5063431;28;20114;-58
2022/06/14 01:12:39;;;;;;;;;;;;;;;;;;5077292;22;20049;-60
2022/06/14 01:15:07;;;;;;;4.78;1.92;;;;;;;;;;5064806;28;19921;-60
2022/06/14 01:17:34;;;;;;;7.20;2.35;;;;;;;;;;5063873;28;20115;-60
2022/06/14 01:20:00;;;;;;;8.18;2.55;;;;;;;;;;5064429;28;20078;-60
2022/06/14 01:22:27;;;;;;;11.05;2.58;;;;;;;;;;5064107;28;20048;-60
2022/06/14 01:24:54;;;;;;;7.20;2.42;;;;;;;;;;5064430;28;20070;-60
2022/06/14 01:27:21;;;;;;;10.73;3.00;;;;;;;;;;5063692;28;20145;-60
2022/06/14 01:29:51;;;;;;;9.05;3.00;;;;;;;;;;5064624;28;20145;-63
2022/06/14 01:32:19;;;;;;;13.23;3.65;;;;;;;;;;5063833;28;20036;-60
2022/06/14 01:34:48;;;;;;;4.95;2.08;;;;;;;;;;5046678;28;20044;-60
2022/06/14 01:37:15;;;;;;;5.10;2.00;;;;;;;;;;5064653;28;20037;-59
2022/06/14 01:39:41;;;;;;;9.00;3.13;;;;;;;;;;5064279;28;20043;-60
2022/06/14 01:42:16;;;;;;;15.10;3.65;;;;;;;;;;5063729;28;20044;-59
2022/06/14 01:44:53;;;;;;;15.35;3.35;;;;;;;;;;5046456;28;20090;-60
2022/06/14 01:47:19;;;;;;;7.13;1.98;;;;;;;;;;5064206;28;20040;-60
2022/06/14 01:52:46;;;;;;;4.22;2.10;;;;;;;;;;5064249;28;20051;-60
2022/06/14 01:55:18;;;;;;;5.60;2.20;;;;;;;;;;5063972;28;20699;-60
2022/06/14 01:58:00;;;;;;;3.95;2.00;;;;;;;;;;5064157;28;20076;-60
2022/06/14 02:00:30;;;;;;;5.95;2.85;;;;;;;;;;5063847;28;20167;-60
2022/06/14 02:05:51;;;;;;;8.65;3.42;;;;;;;;;;5064774;28;20103;-59
2022/06/14 02:08:19;;;;;;;4.65;2.30;;;;;;;;;;5063652;28;20051;-60
2022/06/14 02:10:51;;;;;;;6.72;1.90;;;;;;;;;;5063924;28;20502;-60
2022/06/14 02:13:20;;;;;;;4.82;1.60;;;;;;;;;;5063361;28;20087;-60
2022/06/14 02:15:51;;;;;;;5.25;2.17;;;;;;;;;;5064325;28;20119;-60
2022/06/14 02:18:21;;;;;;;4.13;2.60;;;;;;;;;;5063892;28;20529;-63
2022/06/14 02:20:57;;;;;;;6.07;3.05;;;;;;;;;;5063875;28;20094;-61
2022/06/14 02:23:24;;;;;;;7.35;2.40;;;;;;;;;;5064000;28;20094;-60
2022/06/14 02:25:53;;;;;;;10.38;2.97;;;;;;;;;;5063402;28;20040;-60
2022/06/14 02:28:23;;;;;;;7.70;2.22;;;;;;;;;;5063785;28;20441;-60
2022/06/14 02:30:55;;;;;;;5.15;2.42;;;;;;;;;;5063154;28;20850;-60
2022/06/14 02:33:23;;;;;;;7.80;2.38;;;;;;;;;;5063319;28;20083;-60
2022/06/14 02:35:52;;;;;;;6.68;2.72;;;;;;;;;;5065983;28;20086;-60
2022/06/14 02:38:23;;;;;;;7.10;3.13;;;;;;;;;;5067778;28;20592;-60
2022/06/14 02:40:53;;;;;;;8.15;2.78;;;;;;;;;;5066995;28;20396;-60
2022/06/14 02:43:22;;;;;;;12.25;3.30;;;;;;;;;;5067725;28;20049;-60
2022/06/14 02:45:57;;;;;;;9.68;3.63;;;;;;;;;;5067015;28;20043;-60
2022/06/14 02:48:25;;;;;;;8.43;2.88;;;;;;;;;;5057813;28;20045;-60
2022/06/14 02:50:57;;;;;;;9.65;3.00;;;;;;;;;;5067450;28;20052;-60
2022/06/14 02:53:32;;;;;;;7.43;2.78;;;;;;;;;;5066877;28;20534;-60
2022/06/14 02:56:09;;;;;;;9.30;3.20;;;;;;;;;;5066831;28;20562;-59
2022/06/14 02:58:35;;;;;;;7.40;2.85;;;;;;;;;;5067021;28;20443;-60
2022/06/14 03:01:04;;;;;;;6.88;3.20;;;;;;;;;;5066580;28;20062;-60
2022/06/14 03:03:38;;;;;;;14.68;3.10;;;;;;;;;;5066453;28;20417;-60
2022/06/14 03:06:04;;;;;;;20.50;3.80;;;;;;;;;;5067299;28;20545;-60
2022/06/14 03:08:32;;;;;;;9.57;3.13;;;;;;;;;;5066688;28;20481;-60
2022/06/14 03:11:11;;;;;;;6.28;3.38;;;;;;;;;;5048377;28;20734;-60
2022/06/14 03:13:44;;;;;;;9.32;3.17;;;;;;;;;;5048217;28;20056;-59
2022/06/14 03:16:29;;;;;;;12.07;3.10;;;;;;;;;;5066965;28;20056;-60
2022/06/14 03:18:59;;;;;;;14.07;3.72;;;;;;;;;;5066803;28;20045;-60
2022/06/14 03:21:30;;;;;;;8.65;3.22;;;;;;;;;;5066708;28;20051;-61
2022/06/14 03:24:00;;;;;;;10.43;3.17;;;;;;;;;;5066820;28;20467;-60
2022/06/14 03:26:45;;;;;;;11.50;3.45;;;;;;;;;;5065970;28;20041;-60
2022/06/14 03:29:14;;;;;;;7.63;3.08;;;;;;;;;;5053169;28;20117;-60
2022/06/14 03:32:00;;;;;;;11.95;3.72;;;;;;;;;;5066082;28;20076;-60
2022/06/14 03:34:32;;;;;;;6.80;3.53;;;;;;;;;;5053432;28;20048;-60
2022/06/14 03:36:58;;;;;;;12.88;3.45;;;;;;;;;;5066493;28;20044;-59
2022/06/14 03:39:26;;;;;;;8.93;3.20;;;;;;;;;;5048587;28;20517;-60
2022/06/14 03:41:54;;;;;;;9.63;3.28;;;;;;;;;;5065310;28;20050;-60
2022/06/14 03:44:22;;;;;;;17.27;4.05;;;;;;;;;;5066417;28;20044;-60
2022/06/14 03:46:51;;;;;;;9.05;3.08;;;;;;;;;;5065319;28;20048;-60
2022/06/14 03:49:20;;;;;;;6.80;3.45;;;;;;;;;;5065608;28;20486;-61
2022/06/14 03:51:49;;;;;;;11.98;3.20;;;;;;;;;;5066583;28;20056;-60
2022/06/14 03:54:32;;;;;;;8.43;3.03;;;;;;;;;;5065465;28;20485;-60
2022/06/14 03:57:26;;;;;;;8.95;3.30;;;;;;;;;;5065640;28;20068;-60
2022/06/14 04:00:04;;;;;;;10.15;3.85;;;;;;;;;;5065571;28;20052;-60
2022/06/14 04:05:24;;;;;;;6.80;2.60;;;;;;;;;;5066412;28;20102;-60
2022/06/14 04:07:54;;;;;;;8.68;3.05;;;;;;;;;;5065243;28;20040;-61
2022/06/14 04:10:35;;;;;;;10.20;3.38;;;;;;;;;;5047053;28;20409;-60
2022/06/14 04:13:02;;;;;;;9.40;2.92;;;;;;;;;;5065106;28;20410;-60
2022/06/14 04:15:31;;;;;;;9.90;3.65;;;;;;;;;;5065488;28;20044;-60
2022/06/14 04:21:03;;;;;;;9.57;3.15;;;;;;;;;;5065676;28;20037;-60
2022/06/14 04:23:37;;;;;;;9.77;2.83;;;;;;;;;;5064758;28;20403;-60
2022/06/14 04:26:09;;;;;;;14.45;3.47;;;;;;;;;;5064763;28;20517;-60
2022/06/14 04:28:35;;;;;;;12.85;3.47;;;;;;;;;;5065200;28;20143;-60
2022/06/14 04:31:07;;;;;;;14.57;4.00;;;;;;;;;;5065515;28;20037;-60
2022/06/14 04:33:39;;;;;;;10.95;3.45;;;;;;;;;;5064402;28;20041;-60
2022/06/14 04:36:09;;;;;;;9.23;3.50;;;;;;;;;;5065285;28;20048;-60
2022/06/14 04:38:37;;;;;;;13.07;3.90;;;;;;;;;;5065293;28;20045;-60
2022/06/14 04:41:15;;;;;;;14.00;3.60;;;;;;;;;;5064576;28;20060;-60
2022/06/14 04:43:57;;;;;;;9.55;3.05;;;;;;;;;;5065330;28;20460;-59
2022/06/14 04:46:28;;;;;;;10.60;3.13;;;;;;;;;;5052580;28;20049;-60
2022/06/14 04:48:58;;;;;;;13.52;3.88;;;;;;;;;;5047150;28;20687;-59
2022/06/14 04:51:34;;;;;;;14.95;3.08;;;;;;;;;;5064856;28;20040;-60
2022/06/14 04:54:08;;;;;;;17.25;4.07;;;;;;;;;;5064038;28;20543;-60
2022/06/14 04:56:38;;;;;;;15.80;3.17;;;;;;;;;;5063764;28;20073;-60
2022/06/14 04:59:07;;;;;;;12.90;3.45;;;;;;;;;;5063948;28;21376;-60
2022/06/14 05:01:37;;;;;;;7.65;3.03;;;;;;;;;;5064713;28;20040;-60
2022/06/14 05:04:08;;;;;;;16.55;3.60;;;;;;;;;;5064807;28;20040;-60
2022/06/14 05:06:43;;;;;;;14.75;3.70;;;;;;;;;;5063943;28;20132;-60
2022/06/14 05:09:13;;;;;;;11.25;3.22;;;;;;;;;;5064348;28;20044;-60
2022/06/14 05:11:51;;;;;;;6.70;3.00;;;;;;;;;;5063171;28;20036;-60
2022/06/14 05:14:20;;;;;;;10.73;3.20;;;;;;;;;;5036387;28;20065;-61
2022/06/14 05:16:56;;;;;;;18.25;3.65;;;;;;;;;;5064545;28;20432;-62
2022/06/14 05:19:40;;;;;;;12.20;3.92;;;;;;;;;;5064327;28;20036;-60
2022/06/14 05:22:17;;;;;;;12.65;3.25;;;;;;;;;;5063332;28;20051;-61
2022/06/14 05:24:44;;;;;;;13.10;3.42;;;;;;;;;;5061147;28;20105;-60
2022/06/14 05:27:25;;;;;;;16.65;4.28;;;;;;;;;;5063132;28;20067;-60
2022/06/14 05:30:01;;;;;;;13.05;4.00;;;;;;;;;;5062940;28;20040;-61
2022/06/14 05:32:31;;;;;;;8.95;3.22;;;;;;;;;;5059013;28;20591;-60
2022/06/14 05:35:01;;;;;;;16.67;4.10;;;;;;;;;;5056380;28;20465;-60
2022/06/14 05:37:38;;;;;;;14.02;3.63;;;;;;;;;;5062769;28;20025;-60
2022/06/14 05:40:18;;;;;;;10.48;3.63;;;;;;;;;;5062220;28;20055;-60
2022/06/14 05:42:49;;;;;;;12.82;3.63;;;;;;;;;;5063203;28;20037;-60
2022/06/14 05:45:18;;;;;;;11.95;3.65;;;;;;;;;;5064306;28;20543;-60
2022/06/14 05:47:47;;;;;;;10.80;3.80;;;;;;;;;;5063661;28;20041;-60
2022/06/14 05:50:16;;;;;;;13.02;3.88;;;;;;;;;;5063593;28;20055;-60
2022/06/14 05:52:50;;;;;;;7.43;3.55;;;;;;;;;;5063615;28;20646;-60
2022/06/14 05:55:21;;;;;;;12.07;3.63;;;;;;;;;;5062598;28;20063;-60
2022/06/14 05:57:50;;;;;;;13.18;3.78;;;;;;;;;;5059734;28;20124;-64
2022/06/14 06:00:22;;;;;;;11.48;3.15;;;;;;;;;;5046353;28;20103;-60
2022/06/14 06:02:54;;;;;;;9.45;3.78;;;;;;;;;;5064447;28;20063;-60
2022/06/14 06:05:25;;;;;;;9.07;3.65;;;;;;;;;;5063833;28;20528;-60
2022/06/14 06:08:00;;;;;;;16.50;3.83;;;;;;;;;;5063775;28;20040;-60
2022/06/14 06:10:31;;;;;;;14.48;3.38;;;;;;;;;;5061545;28;20033;-60
2022/06/14 06:13:00;;;;;;;14.75;3.40;;;;;;;;;;5061340;28;20053;-59
2022/06/14 06:15:28;;;;;;;11.75;3.50;;;;;;;;;;5062786;28;20055;-60
2022/06/14 06:17:55;;;;;;;;;;;;;;;;;;5063532;28;20036;-60
2022/06/14 06:20:31;;;;;;;16.45;3.17;;;;;;;;;;5062467;28;19971;-60
2022/06/14 06:23:01;;;;;;;9.85;2.88;;;;;;;;;;5061035;28;20037;-60
2022/06/14 06:25:30;;;;;;;8.05;2.70;;;;;;;;;;5060904;28;20122;-59
2022/06/14 06:27:56;;;;;;;;;;;;;;;;;;5063214;28;20072;-60
2022/06/14 06:30:25;;;;;;;13.23;3.25;;;;;;;;;;5061886;28;19979;-60
2022/06/14 06:32:52;;;;;;;12.85;3.20;;;;;;;;;;5060882;28;20093;-60
2022/06/14 06:35:18;;;;;;;9.95;2.70;;;;;;;;;;5061892;28;20032;-60
2022/06/14 06:37:47;;;;;;;11.20;2.90;;;;;;;;;;5061968;28;20500;-60
2022/06/14 06:40:19;;;;;;;9.02;2.90;;;;;;;;;;5062948;28;20040;-60
2022/06/14 06:42:47;;;;;;;12.13;3.40;;;;;;;;;;5062748;28;20063;-59
2022/06/14 06:45:16;;;;;;;10.65;3.15;;;;;;;;;;5062998;28;20040;-60
2022/06/14 06:47:47;;;;;;;7.35;2.47;;;;;;;;;;5063218;28;20091;-59
2022/06/14 06:50:16;;;;;;;10.25;2.83;;;;;;;;;;5063182;28;20046;-59
2022/06/14 06:52:51;;;;;;;10.80;2.97;;;;;;;;;;5063019;28;20048;-60
2022/06/14 06:55:23;;;;;;;10.40;2.78;;;;;;;;;;5062393;28;20123;-64
2022/06/14 06:57:50;;;;;;;12.55;3.05;;;;;;;;;;5062309;28;20067;-59
2022/06/14 07:00:19;;;;;;;8.52;2.05;;;;;;;;;;5063412;28;20060;-59
2022/06/14 07:02:49;;;;;;;11.10;2.22;;;;;;;;;;5063365;28;20025;-59
2022/06/14 07:05:17;;;;;;;11.63;2.90;;;;;;;;;;5063244;28;20040;-60
2022/06/14 07:07:43;;;;;;;7.20;2.22;;;;;;;;;;5062838;28;20079;-60
2022/06/14 07:10:15;;;;;;;8.27;2.22;;;;;;;;;;5061832;28;20128;-59
2022/06/14 07:12:52;;;;;;;8.23;1.77;;;;;;;;;;5061870;28;20053;-60
2022/06/14 07:15:21;;;;;;;9.25;1.95;;;;;;;;;;5059831;28;20040;-60
2022/06/14 07:17:54;;;;;;;6.47;1.85;;;;;;;;;;5063167;28;20043;-60
2022/06/14 07:20:21;;;;;;;6.20;1.15;;;;;;;;;;5058589;28;20045;-60
2022/06/14 07:22:51;;;;;;;7.07;1.88;;;;;;;;;;5065241;28;20670;-61
2022/06/14 07:25:21;;;;;;;7.15;1.73;;;;;;;;;;5045812;28;20037;-63
2022/06/14 07:27:54;;;;;;;4.75;1.48;;;;;;;;;;5065710;28;20059;-60
2022/06/14 07:30:21;;;;;;;6.15;1.15;;;;;;;;;;5062498;28;20068;-60
2022/06/14 07:32:51;;;;;;;8.90;1.60;;;;;;;;;;5060716;28;20051;-61
2022/06/14 07:35:22;;;;;;;7.47;1.50;;;;;;;;;;5061188;28;20437;-60
2022/06/14 07:37:52;;;;;;;7.00;1.40;;;;;;;;;;5059827;28;20041;-60
2022/06/14 07:40:24;;;;;;;8.07;1.70;;;;;;;;;;5059385;28;20044;-60
2022/06/14 07:43:11;;;;;;;8.80;1.40;;;;;;;;;;5043460;28;20044;-60
2022/06/14 07:45:59;;;;;;;4.70;1.20;;;;;;;;;;5063030;28;20115;-59
2022/06/14 07:48:31;;;;;;;8.98;1.50;;;;;;;;;;5060759;28;20079;-58
2022/06/14 07:51:02;;;;;;;6.65;1.20;;;;;;;;;;5062885;28;20044;-59
2022/06/14 07:53:38;;;;;;;5.65;1.50;;;;;;;;;;5061674;28;20041;-59
2022/06/14 07:56:07;;;;;;;3.00;1.25;;;;;;;;;;5061461;28;20078;-59
2022/06/14 07:58:41;;;;;;;7.32;1.38;;;;;;;;;;5061070;28;20143;-58
2022/06/14 08:01:13;;;;;;;11.13;1.50;;;;;;;;;;5060557;28;20259;-58
2022/06/14 08:03:46;;;;;;;6.35;1.50;;;;;;;;;;5060934;28;20036;-59
2022/06/14 08:06:15;;;;;;;8.48;1.50;;;;;;;;;;5061011;28;20048;-59
2022/06/14 08:08:42;;;;;;;6.93;1.15;;;;;;;;;;5061208;28;20043;-59
2022/06/14 08:11:14;;;;;;;3.78;1.17;;;;;;;;;;5057519;28;20040;-59
2022/06/14 08:13:44;;;;;;;9.23;1.35;;;;;;;;;;5061841;28;20056;-59
2022/06/14 08:16:10;;;;;;;8.27;1.80;;;;;;;;;;5061061;28;20874;-58
2022/06/14 08:18:40;;;;;;;7.82;1.55;;;;;;;;;;5060848;28;20044;-59
2022/06/14 08:21:09;;;;;;;10.13;1.85;;;;;;;;;;5059762;28;20763;-59
2022/06/14 08:23:42;;;;;;;7.25;1.90;;;;;;;;;;5061286;28;20040;-59
2022/06/14 08:26:12;;;;;;;8.00;1.80;;;;;;;;;;5061273;28;20075;-59
2022/06/14 08:28:39;;;;;;;7.10;1.38;;;;;;;;;;5060602;28;20083;-59
2022/06/14 08:31:12;;;;;;;8.65;1.45;;;;;;;;;;5061277;28;20055;-58
2022/06/14 08:33:44;;;;;;;8.00;1.55;;;;;;;;;;5059332;28;20044;-59
2022/06/14 08:36:13;;;;;;;7.90;1.75;;;;;;;;;;5061293;28;20040;-59
2022/06/14 08:38:44;;;;;;;6.32;1.80;;;;;;;;;;5061148;28;20494;-59
2022/06/14 08:41:19;;;;;;;5.22;1.00;;;;;;;;;;5060181;28;20068;-59
2022/06/14 08:43:46;;;;;;;4.05;1.33;;;;;;;;;;5061568;28;20037;-59
2022/06/14 08:46:21;;;;;;;4.15;1.00;;;;;;;;;;5055766;28;20094;-59
2022/06/14 08:48:47;;;;;;;5.35;1.40;;;;;;;;;;5059542;28;20076;-60
2022/06/14 08:51:15;;;;;;;5.93;1.00;;;;;;;;;;5062194;28;20045;-59
2022/06/14 08:53:54;;;;;;;7.82;1.20;;;;;;;;;;5061548;28;20051;-59
2022/06/14 08:56:25;;;;;;;6.70;1.10;;;;;;;;;;5060614;28;20043;-59
2022/06/14 08:59:15;;;;;;;2.97;1.10;;;;;;;;;;5059614;28;20123;-58
2022/06/14 09:01:47;;;;;;;4.82;1.33;;;;;;;;;;5060584;28;20604;-59
2022/06/14 09:04:34;;;;;;;3.85;1.02;;;;;;;;;;5060502;28;20064;-59
2022/06/14 09:07:11;;;;;;;9.60;1.17;;;;;;;;;;5058675;28;20102;-58
2022/06/14 09:09:57;;;;;;;5.47;1.10;;;;;;;;;;5057809;28;20048;-59
2022/06/14 09:12:36;;;;;;;8.07;0.85;;;;;;;;;;5060989;28;20156;-60
2022/06/14 09:15:09;;;;;;;5.57;1.80;;;;;;;;;;5059264;28;20072;-59
2022/06/14 09:17:45;;;;;;;11.95;1.52;;;;;;;;;;5060227;28;20045;-60
2022/06/14 09:20:22;;;;;;;4.93;1.23;;;;;;;;;;5059887;28;20049;-59
2022/06/14 09:22:58;;;;;;;3.55;1.15;;;;;;;;;;5058472;28;20071;-59
2022/06/14 09:25:33;;;;;;;6.80;1.20;;;;;;;;;;5056720;28;20205;-59
2022/06/14 09:28:07;;;;;;;5.47;0.90;;;;;;;;;;5059854;28;20052;-59
2022/06/14 09:30:37;;;;;;;5.95;1.20;;;;;;;;;;5060095;28;20119;-59
2022/06/14 09:33:15;;;;;;;6.25;1.20;;;;;;;;;;5059531;28;20043;-59
2022/06/14 09:35:57;;;;;;;5.55;0.95;;;;;;;;;;5059507;28;20036;-59
2022/06/14 09:38:23;;;;;;;3.65;1.08;;;;;;;;;;5059665;28;20454;-60
2022/06/14 09:41:11;;;;;;;3.85;1.00;;;;;;;;;;5060663;28;20073;-59
2022/06/14 09:43:50;;;;;;;7.40;1.25;;;;;;;;;;5059698;28;20058;-59
2022/06/14 09:46:21;;;;;;;10.27;1.30;;;;;;;;;;5057976;28;20032;-62
2022/06/14 09:48:58;;;;;;;6.53;0.80;;;;;;;;;;5058522;28;20052;-61
2022/06/14 09:51:24;;;;;;;3.67;0.85;;;;;;;;;;5057953;28;20627;-59
2022/06/14 09:53:53;;;;;;;3.20;0.80;;;;;;;;;;5058642;28;20067;-59
2022/06/14 09:56:24;;;;;;;3.90;0.90;;;;;;;;;;5058866;28;20048;-60
2022/06/14 09:58:50;;;;;;;7.80;1.15;;;;;;;;;;5058098;28;20489;-60
2022/06/14 10:01:23;;;;;;;5.45;1.33;;;;;;;;;;5059073;28;20056;-59
2022/06/14 10:04:01;;;;;;;5.25;0.90;;;;;;;;;;5059915;28;20485;-59
2022/06/14 10:06:48;;;;;;;4.63;1.00;;;;;;;;;;5059372;28;20068;-60
2022/06/14 10:09:33;;;;;;;8.43;0.75;;;;;;;;;;5058522;28;20401;-60
2022/06/14 10:12:08;;;;;;;3.50;0.60;;;;;;;;;;5060387;28;20127;-59
2022/06/14 10:14:39;;;;;;;3.42;0.60;;;;;;;;;;5059226;28;20057;-60
2022/06/14 10:17:15;;;;;;;2.85;0.65;;;;;;;;;;5058429;28;20091;-59
2022/06/14 10:19:57;;;;;;;3.70;0.70;;;;;;;;;;5058725;28;20043;-59
2022/06/14 10:22:33;;;;;;;4.82;1.00;;;;;;;;;;5060465;28;20040;-60
2022/06/14 10:25:10;;;;;;;35.30;2.22;;;;;;;;;;5059358;28;20390;-60
2022/06/14 10:30:41;;;;;;;5.30;1.20;;;;;;;;;;5058615;28;20064;-60
2022/06/14 10:33:16;;;;;;;5.78;1.00;;;;;;;;;;5062227;28;20044;-59
2022/06/14 10:35:50;;;;;;;2.95;1.00;;;;;;;;;;5050146;28;20049;-59
2022/06/14 10:38:27;;;;;;;3.28;0.90;;;;;;;;;;5059692;28;20044;-59
2022/06/14 10:41:06;;;;;;;22.43;1.20;;;;;;;;;;5042461;28;20124;-60
2022/06/14 10:43:43;;;;;;;78.15;7.50;;;;;;;;;;5041907;28;20566;-59
2022/06/14 10:46:13;;;;;;;40.67;3.20;;;;;;;;;;5051366;28;20482;-60
2022/06/14 10:48:58;;;;;;;16.63;1.60;;;;;;;;;;5052735;28;20040;-59
2022/06/14 10:51:48;;;;;;;4.07;0.70;;;;;;;;;;5060367;28;20040;-59
2022/06/14 10:54:21;;;;;;;25.85;1.60;;;;;;;;;;5056399;28;20051;-60
2022/06/14 10:56:50;;;;;;;3.40;0.68;;;;;;;;;;5059060;28;20132;-60
2022/06/14 10:59:35;;;;;;;5.75;0.80;;;;;;;;;;5064645;28;20509;-60
2022/06/14 11:02:10;;;;;;;4.80;1.00;;;;;;;;;;5064595;28;20102;-61
2022/06/14 11:04:40;;;;;;;1.52;0.70;;;;;;;;;;5062346;28;20058;-61
2022/06/14 11:07:25;;;;;;;5.18;1.38;;;;;;;;;;5064806;28;20113;-61
2022/06/14 11:10:10;;;;;;;1.77;0.70;;;;;;;;;;5062975;28;20119;-61
2022/06/14 11:12:49;;;;;;;4.35;1.02;;;;;;;;;;5063753;28;20068;-61
2022/06/14 11:15:18;;;;;;;2.30;0.90;;;;;;;;;;5064886;28;20061;-61
2022/06/14 11:17:59;;;;;;;1.63;0.57;;;;;;;;;;5064641;28;20689;-61
2022/06/14 11:20:37;;;;;;;3.95;0.80;;;;;;;;;;5064021;28;20502;-61
2022/06/14 11:23:11;;;;;;;3.25;0.60;;;;;;;;;;5063989;28;20127;-61
2022/06/14 11:25:44;;;;;;;4.85;1.00;;;;;;;;;;5062577;28;20093;-60
2022/06/14 11:28:23;;;;;;;4.38;0.68;;;;;;;;;;5062695;28;20098;-60
2022/06/14 11:31:04;;;;;;;1.75;0.70;;;;;;;;;;5060393;28;20040;-59
2022/06/14 11:33:49;;;;;;;11.85;1.58;;;;;;;;;;5065504;28;20057;-58
2022/06/14 11:36:24;;;;;;;2.33;0.60;;;;;;;;;;5064373;28;20037;-59
2022/06/14 11:38:51;;;;;;;3.97;0.80;;;;;;;;;;5062546;28;20111;-59
2022/06/14 11:41:20;;;;;;;6.68;0.82;;;;;;;;;;5062306;28;20105;-59
2022/06/14 11:43:58;;;;;;;4.88;0.80;;;;;;;;;;5067057;28;20041;-59
2022/06/14 11:46:32;;;;;;;5.10;1.00;;;;;;;;;;5066499;28;20089;-59
2022/06/14 11:49:04;;;;;;;6.20;1.15;;;;;;;;;;5066473;28;20040;-59
2022/06/14 11:51:49;;;;;;;5.68;0.90;;;;;;;;;;5065536;28;20041;-59
2022/06/14 11:54:19;;;;;;;1.85;0.63;;;;;;;;;;5062529;28;20076;-58
2022/06/14 11:57:03;;;;;;;6.72;1.13;;;;;;;;;;5045139;28;20437;-58
2022/06/14 11:59:30;;;;;;;2.75;0.90;;;;;;;;;;5065530;28;20040;-59
2022/06/14 12:02:00;;;;;;;2.92;0.80;;;;;;;;;;5066030;28;20036;-59
2022/06/14 12:04:32;;;;;;;5.22;0.80;;;;;;;;;;5066179;28;20028;-59
2022/06/14 12:07:02;;;;;;;6.10;1.15;;;;;;;;;;5065719;28;20076;-58
2022/06/14 12:09:28;;;;;;;4.22;0.75;;;;;;;;;;5063595;28;20111;-59
2022/06/14 12:11:58;;;;;;;3.70;1.00;;;;;;;;;;5066231;28;20605;-59
2022/06/14 12:14:50;;;;;;;3.38;1.00;;;;;;;;;;5065424;28;20051;-59
2022/06/14 12:17:20;;;;;;;22.70;1.33;;;;;;;;;;5065726;28;20052;-59
2022/06/14 12:19:52;;;;;;;13.63;1.00;;;;;;;;;;5048250;28;20044;-58
2022/06/14 12:22:28;;;;;;;7.57;0.70;;;;;;;;;;5065020;28;20525;-59
2022/06/14 12:27:46;;;;;;;4.50;0.90;;;;;;;;;;5066156;28;20051;-58
2022/06/14 12:30:14;;;;;;;2.58;0.60;;;;;;;;;;5047915;28;20079;-58
2022/06/14 12:32:43;;;;;;;4.50;0.73;;;;;;;;;;5065062;28;20039;-59
2022/06/14 12:35:15;;;;;;;3.28;0.70;;;;;;;;;;5065037;28;20211;-59
2022/06/14 12:37:45;;;;;;;2.15;0.60;;;;;;;;;;5064012;28;20052;-59
2022/06/14 12:40:17;;;;;;;1.40;0.70;;;;;;;;;;5062341;28;20435;-59
2022/06/14 12:42:57;;;;;;;2.05;0.73;;;;;;;;;;5066919;28;20163;-59
2022/06/14 12:45:26;;;;;;;5.57;0.88;;;;;;;;;;5060124;28;20048;-59
2022/06/14 12:47:52;;;;;;;;;;;;;;;;;;5066315;28;20041;-59
2022/06/14 12:50:23;;;;;;;1.77;0.50;;;;;;;;;;5064696;28;19916;-59
2022/06/14 12:52:52;;;;;;;2.53;0.77;;;;;;;;;;5047674;28;20486;-59
2022/06/14 12:55:22;;;;;;;3.10;0.65;;;;;;;;;;5046087;28;20048;-59
2022/06/14 12:57:48;;;;;;;3.03;0.70;;;;;;;;;;5065641;28;20051;-59
2022/06/14 13:00:20;;;;;;;6.53;0.80;;;;;;;;;;5061392;28;20036;-59
2022/06/14 13:02:52;;;;;;;3.10;0.70;;;;;;;;;;5064893;28;20048;-59
2022/06/14 13:05:21;;;;;;;3.40;0.90;;;;;;;;;;5064158;28;20036;-60
2022/06/14 13:07:53;;;;;;;1.38;0.60;;;;;;;;;;5064407;28;20084;-61
2022/06/14 13:10:28;;;;;;;3.38;0.60;;;;;;;;;;5064055;28;20124;-60
2022/06/14 13:13:06;;;;;;;3.35;0.82;;;;;;;;;;5063416;28;20056;-60
2022/06/14 13:15:39;;;;;;;1.63;0.60;;;;;;;;;;5065631;28;20100;-60
2022/06/14 13:18:20;;;;;;;1.27;0.52;;;;;;;;;;5064421;28;20052;-60
2022/06/14 13:20:54;;;;;;;1.55;0.70;;;;;;;;;;5046422;28;20040;-59
2022/06/14 13:23:35;;;;;;;2.40;0.60;;;;;;;;;;5062735;28;20059;-60
2022/06/14 13:26:12;;;;;;;3.08;0.75;;;;;;;;;;5063910;28;20082;-60
2022/06/14 13:28:47;;;;;;;3.55;0.88;;;;;;;;;;5063614;28;20074;-59
2022/06/14 13:31:25;;;;;;;2.72;0.70;;;;;;;;;;5047123;28;20124;-59
2022/06/14 13:34:11;;;;;;;5.85;0.70;;;;;;;;;;5060560;28;20091;-59
2022/06/14 13:36:44;;;;;;;4.22;0.60;;;;;;;;;;5062119;28;20037;-59
2022/06/14 13:39:11;;;;;;;6.80;1.08;;;;;;;;;;5062940;28;20563;-59
2022/06/14 13:41:41;;;;;;;4.80;0.70;;;;;;;;;;5063929;28;20240;-59
2022/06/14 13:44:11;;;;;;;4.00;0.90;;;;;;;;;;5046215;28;20521;-59
2022/06/14 13:46:45;;;;;;;3.75;0.70;;;;;;;;;;5063880;28;20133;-59
2022/06/14 13:49:15;;;;;;;8.68;1.15;;;;;;;;;;5063968;28;20048;-60
2022/06/14 13:51:42;;;;;;;3.95;0.80;;;;;;;;;;5063145;28;20047;-59
2022/06/14 13:54:27;;;;;;;3.00;0.80;;;;;;;;;;5062452;28;20056;-59
2022/06/14 13:56:54;;;;;;;2.67;0.55;;;;;;;;;;5064185;28;20045;-59
2022/06/14 13:59:23;;;;;;;3.80;0.60;;;;;;;;;;5063348;28;20494;-59
2022/06/14 14:01:54;;;;;;;7.00;0.70;;;;;;;;;;5063924;28;20040;-59
2022/06/14 14:04:20;;;;;;;2.53;0.93;;;;;;;;;;5064052;28;20036;-60
2022/06/14 14:06:51;;;;;;;7.10;0.70;;;;;;;;;;5062753;28;20040;-62
2022/06/14 14:09:19;;;;;;;3.70;0.85;;;;;;;;;;5061202;28;20094;-59
2022/06/14 14:11:52;;;;;;;9.52;1.17;;;;;;;;;;5064254;28;20497;-60
2022/06/14 14:14:37;;;;;;;4.80;0.90;;;;;;;;;;5063421;28;20174;-60
2022/06/14 14:17:05;;;;;;;4.53;0.80;;;;;;;;;;5056350;28;20140;-60
2022/06/14 14:19:46;;;;;;;5.15;0.70;;;;;;;;;;5061641;28;20045;-60
2022/06/14 14:22:18;;;;;;;5.47;1.63;;;;;;;;;;5059192;28;20098;-60
2022/06/14 14:24:53;;;;;;;4.97;0.88;;;;;;;;;;5062233;28;20036;-59
2022/06/14 14:27:30;;;;;;;8.18;1.20;;;;;;;;;;5058993;28;20032;-60
2022/06/14 14:30:02;;;;;;;3.10;0.80;;;;;;;;;;5062628;28;20048;-60
2022/06/14 14:32:32;;;;;;;2.78;0.75;;;;;;;;;;5064254;28;20071;-59
2022/06/14 14:35:06;;;;;;;3.58;0.70;;;;;;;;;;5066505;28;20055;-60
2022/06/14 14:37:38;;;;;;;3.05;0.60;;;;;;;;;;5066338;28;20094;-59
2022/06/14 14:40:22;;;;;;;13.13;0.80;;;;;;;;;;5066463;28;20044;-60
2022/06/14 14:42:52;;;;;;;4.50;0.88;;;;;;;;;;5066633;28;20046;-60
2022/06/14 14:45:24;;;;;;;6.35;0.90;;;;;;;;;;5067362;28;20059;-59
2022/06/14 14:47:55;;;;;;;2.15;0.80;;;;;;;;;;5067211;28;20033;-60
2022/06/14 14:50:21;;;;;;;4.70;0.70;;;;;;;;;;5066602;28;20115;-60
2022/06/14 14:52:52;;;;;;;2.45;0.70;;;;;;;;;;5067064;28;20049;-60
2022/06/14 14:55:29;;;;;;;2.60;1.00;;;;;;;;;;5046365;28;20040;-60
2022/06/14 14:57:59;;;;;;;3.55;0.70;;;;;;;;;;5046060;28;20517;-59
2022/06/14 15:05:20;;;;;;;5.68;0.60;;;;;;;;;;5062032;28;20478;-60
2022/06/14 15:06:01;;;;;;;3.08;0.70;;;;;;;;;;5064787;28;20135;-61
2022/06/14 15:08:38;;;;;;;1.60;0.57;;;;;;;;;;5062641;28;20029;-61
2022/06/14 15:11:19;;;;;;;4.55;0.80;;;;;;;;;;5063391;28;20048;-60
2022/06/14 15:13:47;;;;;;;4.47;0.70;;;;;;;;;;5064218;28;20135;-60
2022/06/14 15:16:17;;;;;;;5.32;0.70;;;;;;;;;;5067428;28;20133;-60
2022/06/14 15:21:32;;;;;;;4.32;0.85;;;;;;;;;;5063535;28;20490;-61
2022/06/14 15:24:01;;;;;;;3.28;0.90;;;;;;;;;;5065547;28;20093;-60
2022/06/14 15:26:29;;;;;;;3.72;0.90;;;;;;;;;;5065321;28;20063;-60
2022/06/14 15:28:58;;;;;;;4.97;0.88;;;;;;;;;;5063821;28;20053;-60
2022/06/14 15:31:25;;;;;;;1.80;0.80;;;;;;;;;;5063821;28;20032;-60
2022/06/14 15:33:52;;;;;;;3.67;0.70;;;;;;;;;;5065402;28;20050;-59